createdAt,value
2023-04-16T00:02:02.833Z,58.80
2023-04-16T00:04:29.720Z,60.40
2023-04-16T00:06:56.705Z,58.30
2023-04-16T00:09:23.501Z,59.70
2023-04-16T00:11:51.481Z,60.00
2023-04-16T00:14:18.161Z,60.10
2023-04-16T00:16:44.903Z,59.90
2023-04-16T00:19:11.787Z,59.70
2023-04-16T00:21:39.005Z,60.00
2023-04-16T00:24:05.655Z,60.20
2023-04-16T00:26:32.409Z,58.70
2023-04-16T00:29:00.858Z,58.30
2023-04-16T00:31:28.541Z,57.80
2023-04-16T00:33:55.402Z,58.80
2023-04-16T00:36:23.433Z,58.00
2023-04-16T00:38:50.474Z,58.70
2023-04-16T00:41:17.205Z,58.70
2023-04-16T00:43:43.905Z,59.30
2023-04-16T00:46:12.404Z,59.50
2023-04-16T00:48:41.163Z,60.00
2023-04-16T00:51:09.052Z,59.70
2023-04-16T00:53:35.987Z,59.00
2023-04-16T00:56:03.839Z,59.00
2023-04-16T00:58:31.410Z,59.70
2023-04-16T01:00:58.176Z,59.50
2023-04-16T01:03:35.097Z,59.30
2023-04-16T01:06:02.087Z,59.50
2023-04-16T01:08:29.106Z,59.50
2023-04-16T01:10:55.786Z,59.30
2023-04-16T01:13:22.497Z,60.40
2023-04-16T01:15:52.077Z,59.40
2023-04-16T01:18:20.391Z,59.40
2023-04-16T01:20:48.916Z,59.00
2023-04-16T01:23:16.051Z,59.60
2023-04-16T01:25:42.788Z,58.80
2023-04-16T01:28:09.532Z,59.20
2023-04-16T01:30:36.242Z,59.40
2023-04-16T01:33:03.133Z,59.10
2023-04-16T01:35:29.826Z,58.30
2023-04-16T01:37:57.864Z,58.40
2023-04-16T01:40:24.563Z,57.50
2023-04-16T01:42:51.341Z,58.30
2023-04-16T01:45:19.330Z,57.10
2023-04-16T01:47:46.077Z,57.50
2023-04-16T01:50:12.886Z,57.50
2023-04-16T01:52:39.555Z,57.90
2023-04-16T01:55:08.353Z,57.40
2023-04-16T01:57:35.052Z,57.10
2023-04-16T02:00:02.084Z,57.70
2023-04-16T02:02:28.995Z,58.80
2023-04-16T02:04:56.641Z,59.10
2023-04-16T02:07:24.291Z,58.70
2023-04-16T02:09:51.095Z,58.90
2023-04-16T02:12:19.482Z,58.70
2023-04-16T02:14:46.221Z,59.00
2023-04-16T02:17:12.948Z,58.90
2023-04-16T02:19:39.598Z,58.70
2023-04-16T02:22:06.280Z,58.90
2023-04-16T02:24:33.109Z,58.80
2023-04-16T02:26:59.837Z,58.80
2023-04-16T02:29:27.871Z,58.80
2023-04-16T02:31:54.683Z,58.70
2023-04-16T02:34:21.432Z,58.10
2023-04-16T02:36:48.115Z,58.50
2023-04-16T02:39:14.809Z,58.60
2023-04-16T02:41:41.658Z,58.40
2023-04-16T02:44:08.320Z,58.90
2023-04-16T02:46:36.327Z,58.60
2023-04-16T02:49:03.132Z,57.70
2023-04-16T02:51:29.812Z,58.50
2023-04-16T02:53:56.476Z,58.70
2023-04-16T02:56:23.286Z,58.20
2023-04-16T02:58:49.992Z,58.80
2023-04-16T03:01:16.716Z,58.30
2023-04-16T03:03:44.827Z,58.10
2023-04-16T03:06:11.526Z,58.30
2023-04-16T03:08:38.224Z,58.70
2023-04-16T03:11:05.060Z,59.20
2023-04-16T03:13:31.848Z,60.00
2023-04-16T03:15:58.620Z,59.20
2023-04-16T03:18:25.305Z,58.90
2023-04-16T03:20:53.862Z,58.90
2023-04-16T03:23:20.656Z,59.30
2023-04-16T03:25:47.389Z,58.40
2023-04-16T03:28:14.115Z,58.50
2023-04-16T03:30:40.857Z,58.00
2023-04-16T03:33:07.582Z,58.70
2023-04-16T03:35:34.262Z,58.20
2023-04-16T03:38:02.312Z,58.00
2023-04-16T03:40:28.971Z,57.70
2023-04-16T03:42:55.773Z,57.80
2023-04-16T03:45:22.582Z,57.50
2023-04-16T03:47:49.350Z,58.00
2023-04-16T03:50:16.134Z,56.90
2023-04-16T03:52:42.803Z,56.60
2023-04-16T03:55:10.982Z,57.40
2023-04-16T03:57:37.668Z,57.70
2023-04-16T04:00:05.378Z,58.00
2023-04-16T04:02:32.271Z,57.80
2023-04-16T04:04:59.115Z,57.60
2023-04-16T04:07:25.836Z,58.20
2023-04-16T04:09:52.491Z,59.00
2023-04-16T04:12:20.495Z,58.40
2023-04-16T04:14:47.156Z,58.80
2023-04-16T04:17:13.807Z,58.10
2023-04-16T04:19:47.156Z,58.50
2023-04-16T04:22:21.236Z,57.80
2023-04-16T04:24:47.956Z,58.60
2023-04-16T04:27:14.668Z,58.40
2023-04-16T04:29:42.657Z,58.70
2023-04-16T04:32:09.308Z,58.90
2023-04-16T04:34:35.966Z,58.80
2023-04-16T04:37:02.659Z,58.20
2023-04-16T04:39:29.420Z,58.10
2023-04-16T04:41:57.556Z,58.70
2023-04-16T04:44:24.264Z,58.40
2023-04-16T04:46:52.321Z,57.30
2023-04-16T04:49:19.072Z,58.40
2023-04-16T04:51:45.802Z,58.30
2023-04-16T04:54:12.505Z,58.50
2023-04-16T04:56:39.241Z,58.80
2023-04-16T04:59:05.928Z,58.40
2023-04-16T05:01:32.720Z,59.00
2023-04-16T05:04:00.836Z,58.70
2023-04-16T05:06:29.450Z,59.30
2023-04-16T05:08:56.337Z,59.40
2023-04-16T05:11:23.072Z,58.60
2023-04-16T05:13:49.768Z,58.50
2023-04-16T05:16:16.447Z,59.00
2023-04-16T05:18:43.192Z,58.80
2023-04-16T05:21:11.200Z,58.70
2023-04-16T05:23:37.918Z,59.20
2023-04-16T05:26:04.712Z,59.10
2023-04-16T05:28:31.483Z,59.10
2023-04-16T05:30:58.305Z,59.00
2023-04-16T05:33:25.077Z,59.00
2023-04-16T05:35:51.737Z,59.10
2023-04-16T05:38:19.945Z,58.20
2023-04-16T05:40:46.710Z,58.60
2023-04-16T05:43:13.408Z,58.40
2023-04-16T05:45:40.156Z,58.40
2023-04-16T05:48:07.428Z,58.70
2023-04-16T05:50:34.284Z,58.90
2023-04-16T05:53:01.418Z,59.10
2023-04-16T05:55:29.513Z,58.90
2023-04-16T05:57:56.198Z,59.00
2023-04-16T06:00:22.997Z,58.80
2023-04-16T06:02:50.333Z,58.80
2023-04-16T06:05:17.186Z,58.60
2023-04-16T06:07:43.898Z,58.80
2023-04-16T06:10:11.101Z,59.00
2023-04-16T06:12:39.154Z,59.00
2023-04-16T06:15:07.007Z,59.00
2023-04-16T06:17:33.712Z,59.10
2023-04-16T06:20:00.495Z,59.40
2023-04-16T06:22:27.251Z,58.90
2023-04-16T06:24:56.165Z,58.90
2023-04-16T06:27:26.001Z,58.90
2023-04-16T06:29:54.049Z,59.50
2023-04-16T06:32:20.831Z,59.00
2023-04-16T06:34:47.531Z,59.30
2023-04-16T06:37:14.685Z,59.40
2023-04-16T06:39:41.465Z,59.80
2023-04-16T06:42:08.176Z,58.90
2023-04-16T06:44:36.117Z,59.40
2023-04-16T06:47:04.194Z,59.10
2023-04-16T06:49:31.098Z,59.60
2023-04-16T06:51:57.887Z,59.30
2023-04-16T06:54:24.661Z,59.00
2023-04-16T06:56:51.307Z,59.60
2023-04-16T06:59:17.998Z,60.00
2023-04-16T07:01:44.707Z,60.20
2023-04-16T07:04:12.945Z,59.80
2023-04-16T07:06:39.906Z,60.10
2023-04-16T07:09:06.592Z,60.50
2023-04-16T07:11:34.848Z,60.20
2023-04-16T07:14:02.855Z,60.10
2023-04-16T07:16:29.654Z,60.10
2023-04-16T07:18:56.374Z,60.30
2023-04-16T07:21:24.616Z,60.30
2023-04-16T07:23:51.309Z,60.10
2023-04-16T07:26:18.051Z,60.30
2023-04-16T07:28:44.798Z,60.50
2023-04-16T07:31:11.641Z,60.50
2023-04-16T07:33:38.560Z,60.80
2023-04-16T07:36:05.676Z,60.50
2023-04-16T07:38:33.811Z,60.20
2023-04-16T07:41:00.792Z,60.70
2023-04-16T07:43:27.554Z,60.60
2023-04-16T07:45:54.325Z,60.70
2023-04-16T07:48:21.968Z,61.30
2023-04-16T07:50:48.705Z,61.30
2023-04-16T07:53:15.492Z,61.60
2023-04-16T07:55:43.552Z,61.50
2023-04-16T07:58:10.233Z,60.80
2023-04-16T08:00:40.023Z,61.40
2023-04-16T08:03:06.944Z,60.80
2023-04-16T08:05:36.163Z,60.30
2023-04-16T08:08:02.960Z,60.30
2023-04-16T08:10:29.683Z,59.70
2023-04-16T08:12:57.712Z,58.80
2023-04-16T08:15:24.379Z,60.30
2023-04-16T08:17:51.109Z,59.90
2023-04-16T08:20:19.387Z,60.50
2023-04-16T08:22:46.356Z,60.90
2023-04-16T08:25:13.076Z,60.80
2023-04-16T08:27:39.777Z,61.30
2023-04-16T08:30:08.348Z,60.50
2023-04-16T08:32:35.258Z,60.80
2023-04-16T08:35:02.049Z,61.50
2023-04-16T08:37:28.749Z,61.30
2023-04-16T08:39:55.436Z,61.50
2023-04-16T08:42:29.312Z,60.50
2023-04-16T08:45:05.106Z,60.40
2023-04-16T08:47:35.791Z,60.90
2023-04-16T08:50:08.881Z,61.00
2023-04-16T08:52:44.949Z,60.90
2023-04-16T08:55:13.632Z,60.70
2023-04-16T08:57:47.435Z,61.00
2023-04-16T09:00:15.786Z,61.20
2023-04-16T09:02:44.082Z,61.70
2023-04-16T09:05:14.050Z,61.10
2023-04-16T09:07:42.013Z,60.70
2023-04-16T09:10:19.001Z,60.90
2023-04-16T09:12:45.962Z,61.00
2023-04-16T09:15:13.843Z,61.30
2023-04-16T09:17:40.722Z,61.50
2023-04-16T09:20:09.826Z,61.10
2023-04-16T09:22:36.903Z,61.20
2023-04-16T09:25:04.384Z,61.80
2023-04-16T09:27:31.246Z,61.20
2023-04-16T09:29:58.190Z,61.40
2023-04-16T09:32:26.218Z,61.30
2023-04-16T09:34:58.557Z,61.20
2023-04-16T09:37:27.453Z,62.00
2023-04-16T09:39:56.686Z,61.50
2023-04-16T09:42:24.760Z,62.40
2023-04-16T09:44:52.310Z,62.20
2023-04-16T09:47:19.299Z,62.20
2023-04-16T09:49:46.034Z,62.40
2023-04-16T09:52:16.922Z,62.10
2023-04-16T09:55:11.706Z,62.30
2023-04-16T09:57:41.617Z,62.50
2023-04-16T10:00:09.740Z,62.70
2023-04-16T10:02:39.799Z,62.70
2023-04-16T10:05:07.304Z,62.80
2023-04-16T10:07:35.074Z,62.70
2023-04-16T10:10:04.049Z,62.60
2023-04-16T10:12:31.011Z,62.50
2023-04-16T10:14:57.838Z,62.30
2023-04-16T10:17:24.873Z,62.30
2023-04-16T10:19:52.071Z,62.60
2023-04-16T10:22:18.760Z,62.70
2023-04-16T10:24:46.776Z,62.90
2023-04-16T10:27:14.761Z,62.50
2023-04-16T10:29:41.663Z,62.70
2023-04-16T10:32:08.675Z,62.00
2023-04-16T10:34:35.935Z,62.00
2023-04-16T10:37:02.636Z,62.30
2023-04-16T10:39:29.396Z,62.50
2023-04-16T10:42:08.223Z,62.40
2023-04-16T10:44:36.392Z,62.60
2023-04-16T10:47:10.606Z,62.60
2023-04-16T10:49:37.400Z,62.80
2023-04-16T10:52:10.202Z,62.20
2023-04-16T10:54:36.951Z,62.10
2023-04-16T10:57:04.907Z,61.80
2023-04-16T10:59:32.749Z,62.00
2023-04-16T11:02:06.642Z,62.90
2023-04-16T11:04:43.787Z,62.60
2023-04-16T11:07:35.388Z,62.40
2023-04-16T11:10:11.705Z,62.30
2023-04-16T11:12:45.658Z,62.30
2023-04-16T11:15:33.780Z,62.00
2023-04-16T11:18:19.123Z,62.20
2023-04-16T11:21:50.584Z,61.80
2023-04-16T11:27:27.969Z,62.40
2023-04-16T11:30:09.368Z,62.10
2023-04-16T11:32:37.907Z,61.60
2023-04-16T11:35:18.759Z,61.00
2023-04-16T11:37:46.774Z,60.90
2023-04-16T11:40:13.725Z,61.00
2023-04-16T11:42:41.650Z,60.70
2023-04-16T11:45:10.154Z,60.00
2023-04-16T11:47:44.902Z,59.90
2023-04-16T11:50:20.750Z,60.40
2023-04-16T11:52:51.662Z,60.40
2023-04-16T11:58:26.669Z,59.00
2023-04-16T12:00:54.069Z,60.00
2023-04-16T12:03:40.342Z,60.30
2023-04-16T12:06:10.126Z,60.00
2023-04-16T12:08:54.158Z,60.10
2023-04-16T12:11:37.980Z,60.40
2023-04-16T12:14:08.677Z,59.90
2023-04-16T12:16:35.922Z,60.00
2023-04-16T12:19:04.064Z,59.90
2023-04-16T12:21:39.712Z,60.70
2023-04-16T12:24:07.841Z,60.60
2023-04-16T12:26:42.154Z,60.50
2023-04-16T12:29:20.177Z,60.30
2023-04-16T12:31:47.339Z,59.90
2023-04-16T12:34:14.459Z,60.60
2023-04-16T12:36:45.270Z,60.40
2023-04-16T12:39:13.356Z,59.60
2023-04-16T12:41:42.978Z,58.40
2023-04-16T12:44:10.938Z,58.40
2023-04-16T12:46:38.922Z,57.70
2023-04-16T12:49:05.949Z,57.50
2023-04-16T12:51:33.119Z,57.30
2023-04-16T12:54:02.077Z,57.10
2023-04-16T12:56:29.078Z,57.00
2023-04-16T12:58:56.113Z,57.30
2023-04-16T13:01:23.663Z,57.20
2023-04-16T13:03:50.621Z,58.00
2023-04-16T13:06:17.959Z,57.80
2023-04-16T13:08:45.392Z,58.60
2023-04-16T13:11:13.431Z,58.10
2023-04-16T13:13:41.946Z,58.10
2023-04-16T13:16:08.822Z,57.70
2023-04-16T13:18:36.270Z,57.40
2023-04-16T13:21:03.040Z,57.40
2023-04-16T13:23:32.745Z,58.20
2023-04-16T13:25:59.411Z,58.00
2023-04-16T13:28:27.533Z,58.70
2023-04-16T13:30:54.426Z,58.80
2023-04-16T13:33:21.422Z,58.40
2023-04-16T13:35:48.936Z,59.20
2023-04-16T13:38:15.675Z,58.60
2023-04-16T13:40:42.400Z,59.30
2023-04-16T13:43:09.148Z,59.30
2023-04-16T13:45:38.013Z,60.00
2023-04-16T13:48:05.412Z,59.40
2023-04-16T13:50:32.114Z,58.80
2023-04-16T13:52:58.829Z,58.80
2023-04-16T13:55:25.606Z,58.60
2023-04-16T13:57:52.449Z,58.30
2023-04-16T14:00:19.532Z,59.00
2023-04-16T14:02:47.774Z,58.50
2023-04-16T14:05:14.734Z,58.70
2023-04-16T14:07:41.507Z,59.00
2023-04-16T14:10:09.499Z,58.50
2023-04-16T14:12:36.418Z,58.50
2023-04-16T14:15:03.822Z,57.70
2023-04-16T14:17:33.548Z,58.10
2023-04-16T14:20:01.976Z,58.20
2023-04-16T14:22:28.628Z,58.20
2023-04-16T14:24:55.312Z,58.40
2023-04-16T14:27:22.005Z,58.70
2023-04-16T14:29:48.797Z,58.30
2023-04-16T14:32:15.455Z,59.00
2023-04-16T14:34:42.266Z,59.10
2023-04-16T14:37:10.418Z,59.00
2023-04-16T14:39:37.177Z,59.00
2023-04-16T14:42:04.244Z,59.30
2023-04-16T14:44:30.984Z,59.30
2023-04-16T14:46:57.722Z,59.20
2023-04-16T14:49:25.163Z,59.10
2023-04-16T14:51:51.960Z,59.10
2023-04-16T14:54:20.228Z,59.20
2023-04-16T14:56:47.039Z,59.00
2023-04-16T14:59:14.048Z,59.00
2023-04-16T15:01:43.847Z,58.90
2023-04-16T15:04:12.822Z,58.80
2023-04-16T15:06:39.851Z,58.90
2023-04-16T15:09:08.974Z,58.90
2023-04-16T15:11:43.765Z,58.80
2023-04-16T15:14:11.813Z,58.80
2023-04-16T15:16:40.610Z,58.90
2023-04-16T15:19:09.225Z,58.70
2023-04-16T15:21:36.688Z,58.20
2023-04-16T15:24:07.062Z,58.20
2023-04-16T15:26:33.990Z,58.30
2023-04-16T15:29:05.338Z,58.00
2023-04-16T15:31:32.305Z,58.00
2023-04-16T15:33:59.284Z,58.00
2023-04-16T15:36:26.376Z,58.10
2023-04-16T15:38:53.538Z,57.90
2023-04-16T15:41:20.500Z,57.70
2023-04-16T15:43:47.517Z,57.70
2023-04-16T15:47:01.614Z,57.70
2023-04-16T15:49:29.753Z,57.60
2023-04-16T15:51:56.467Z,57.80
2023-04-16T15:54:43.573Z,57.30
2023-04-16T15:57:10.373Z,57.00
2023-04-16T15:59:37.185Z,56.90
2023-04-16T16:02:03.946Z,56.70
2023-04-16T16:04:32.493Z,56.30
2023-04-16T16:06:59.273Z,56.20
2023-04-16T16:09:26.338Z,56.40
2023-04-16T16:11:55.214Z,56.40
2023-04-16T16:14:22.081Z,56.40
2023-04-16T16:16:49.024Z,56.40
2023-04-16T16:19:15.811Z,56.60
2023-04-16T16:21:44.177Z,56.60
2023-04-16T16:24:11.032Z,56.40
2023-04-16T16:26:37.822Z,56.20
2023-04-16T16:29:04.596Z,56.20
2023-04-16T16:31:31.503Z,56.30
2023-04-16T16:33:58.241Z,56.20
2023-04-16T16:36:24.926Z,56.20
2023-04-16T16:38:57.017Z,56.20
2023-04-16T16:41:28.818Z,56.00
2023-04-16T16:43:55.915Z,56.10
2023-04-16T16:46:23.442Z,56.10
2023-04-16T16:48:50.550Z,56.00
2023-04-16T16:51:17.391Z,56.00
2023-04-16T16:53:45.768Z,55.90
2023-04-16T16:56:14.119Z,55.90
2023-04-16T16:58:41.075Z,55.60
2023-04-16T17:01:07.982Z,55.30
2023-04-16T17:03:35.072Z,55.00
2023-04-16T17:06:02.179Z,54.70
2023-04-16T17:08:29.223Z,54.50
2023-04-16T17:10:56.072Z,54.40
2023-04-16T17:13:24.451Z,54.60
2023-04-16T17:15:51.263Z,55.10
2023-04-16T17:18:21.416Z,54.20
2023-04-16T17:20:48.141Z,54.20
2023-04-16T17:23:14.875Z,54.10
2023-04-16T17:25:41.667Z,54.00
2023-04-16T17:28:08.395Z,54.00
2023-04-16T17:30:36.725Z,53.80
2023-04-16T17:33:04.081Z,53.90
2023-04-16T17:35:31.148Z,53.80
2023-04-16T17:37:58.179Z,54.00
2023-04-16T17:40:25.416Z,53.90
2023-04-16T17:42:52.436Z,53.80
2023-04-16T17:45:19.594Z,53.80
2023-04-16T17:47:47.786Z,53.80
2023-04-16T17:50:14.634Z,53.80
2023-04-16T17:52:41.319Z,53.80
2023-04-16T17:55:11.102Z,53.90
2023-04-16T17:57:38.187Z,53.70
2023-04-16T18:00:06.560Z,53.70
2023-04-16T18:02:36.004Z,53.70
2023-04-16T18:05:08.016Z,53.80
2023-04-16T18:07:38.470Z,54.10
2023-04-16T18:10:06.654Z,54.00
2023-04-16T18:12:33.590Z,54.10
2023-04-16T18:15:00.532Z,54.10
2023-04-16T18:17:27.384Z,54.10
2023-04-16T18:19:54.329Z,54.20
2023-04-16T18:22:22.702Z,54.00
2023-04-16T18:24:49.796Z,54.10
2023-04-16T18:27:16.781Z,54.20
2023-04-16T18:29:45.230Z,54.40
2023-04-16T18:32:12.740Z,54.50
2023-04-16T18:34:39.851Z,54.50
2023-04-16T18:37:07.093Z,54.60
2023-04-16T18:39:35.468Z,54.70
2023-04-16T18:42:02.435Z,54.80
2023-04-16T18:44:29.389Z,54.70
2023-04-16T18:46:56.091Z,54.80
2023-04-16T18:49:22.842Z,54.90
2023-04-16T18:51:49.652Z,55.00
2023-04-16T18:54:16.589Z,55.20
2023-04-16T18:56:44.801Z,55.30
2023-04-16T18:59:15.524Z,56.00
2023-04-16T19:01:44.761Z,55.20
2023-04-16T19:04:11.694Z,55.50
2023-04-16T19:06:38.728Z,55.50
2023-04-16T19:09:05.619Z,55.60
2023-04-16T19:11:32.717Z,55.70
2023-04-16T19:14:01.774Z,55.70
2023-04-16T19:16:31.651Z,55.70
2023-04-16T19:18:58.631Z,55.80
2023-04-16T19:21:25.591Z,55.70
2023-04-16T19:23:54.716Z,55.80
2023-04-16T19:26:23.818Z,55.80
2023-04-16T19:28:50.724Z,55.90
2023-04-16T19:31:19.091Z,56.00
2023-04-16T19:33:46.022Z,55.90
2023-04-16T19:36:13.017Z,55.80
2023-04-16T19:38:39.828Z,55.80
2023-04-16T19:41:06.546Z,55.80
2023-04-16T19:43:33.192Z,55.90
2023-04-16T19:46:00.003Z,56.10
2023-04-16T19:48:28.155Z,55.90
2023-04-16T19:50:54.853Z,55.90
2023-04-16T19:53:21.516Z,55.90
2023-04-16T19:55:48.425Z,55.80
2023-04-16T19:58:15.136Z,55.80
2023-04-16T20:00:42.044Z,55.70
2023-04-16T20:03:09.238Z,55.70
2023-04-16T20:05:37.590Z,55.60
2023-04-16T20:08:05.193Z,55.70
2023-04-16T20:10:32.094Z,55.40
2023-04-16T20:13:01.839Z,55.40
2023-04-16T20:15:28.945Z,54.90
2023-04-16T20:17:56.058Z,54.70
2023-04-16T20:20:26.332Z,54.50
2023-04-16T20:22:55.726Z,54.50
2023-04-16T20:25:22.712Z,54.30
2023-04-16T20:27:49.687Z,54.20
2023-04-16T20:30:16.767Z,54.30
2023-04-16T20:32:43.526Z,54.20
2023-04-16T20:35:10.463Z,54.00
2023-04-16T20:37:37.861Z,54.10
2023-04-16T20:40:07.856Z,54.00
2023-04-16T20:42:34.684Z,53.90
2023-04-16T20:45:01.376Z,53.80
2023-04-16T20:47:28.135Z,53.50
2023-04-16T20:49:54.892Z,53.40
2023-04-16T20:52:21.599Z,53.50
2023-04-16T20:54:48.544Z,54.20
2023-04-16T20:57:16.565Z,53.50
2023-04-16T20:59:43.220Z,53.50
2023-04-16T21:02:10.174Z,53.50
2023-04-16T21:04:37.086Z,53.60
2023-04-16T21:07:03.831Z,53.70
2023-04-16T21:09:30.634Z,53.90
2023-04-16T21:11:57.355Z,54.00
2023-04-16T21:14:25.322Z,54.00
2023-04-16T21:16:52.034Z,54.20
2023-04-16T21:19:18.707Z,54.10
2023-04-16T21:21:45.543Z,54.20
2023-04-16T21:24:12.251Z,53.90
2023-04-16T21:26:38.927Z,54.10
2023-04-16T21:29:05.582Z,54.00
2023-04-16T21:31:33.667Z,53.80
2023-04-16T21:34:00.366Z,54.30
2023-04-16T21:36:27.049Z,53.50
2023-04-16T21:38:53.756Z,53.40
2023-04-16T21:41:20.454Z,53.40
2023-04-16T21:43:47.112Z,53.30
2023-04-16T21:46:13.828Z,53.30
2023-04-16T21:48:41.883Z,53.20
2023-04-16T21:51:08.579Z,53.20
2023-04-16T21:53:35.343Z,53.00
2023-04-16T21:56:02.226Z,53.10
2023-04-16T21:58:29.081Z,53.00
2023-04-16T22:00:55.767Z,53.10
2023-04-16T22:03:22.947Z,53.10
2023-04-16T22:05:51.118Z,53.10
2023-04-16T22:08:24.535Z,53.10
2023-04-16T22:10:51.875Z,53.00
2023-04-16T22:13:18.630Z,53.20
2023-04-16T22:15:45.337Z,53.10
2023-04-16T22:18:12.005Z,53.00
2023-04-16T22:20:39.101Z,52.90
2023-04-16T22:23:07.500Z,52.90
2023-04-16T22:25:34.184Z,52.90
2023-04-16T22:28:00.877Z,53.00
2023-04-16T22:30:27.674Z,53.00
2023-04-16T22:32:54.401Z,52.90
2023-04-16T22:35:21.221Z,52.90
2023-04-16T22:37:47.959Z,52.90
2023-04-16T22:40:16.210Z,52.80
2023-04-16T22:42:42.895Z,52.90
2023-04-16T22:45:10.510Z,53.00
2023-04-16T22:47:37.281Z,52.90
2023-04-16T22:50:04.501Z,52.70
2023-04-16T22:52:31.221Z,52.80
2023-04-16T22:54:57.865Z,52.80
2023-04-16T22:57:25.858Z,52.90
2023-04-16T22:59:52.750Z,52.90
2023-04-16T23:02:20.287Z,52.80
2023-04-16T23:04:47.163Z,52.80
2023-04-16T23:07:13.880Z,52.70
2023-04-16T23:09:40.750Z,52.80
2023-04-16T23:12:07.646Z,52.80
2023-04-16T23:14:35.729Z,52.60
2023-04-16T23:17:02.699Z,52.70
2023-04-16T23:19:29.412Z,52.50
2023-04-16T23:21:56.095Z,52.70
2023-04-16T23:24:22.760Z,52.70
2023-04-16T23:26:49.563Z,52.70
2023-04-16T23:29:16.260Z,52.70
2023-04-16T23:31:44.349Z,52.60
2023-04-16T23:34:11.021Z,52.90
2023-04-16T23:36:37.749Z,52.80
2023-04-16T23:39:04.655Z,52.70
2023-04-16T23:41:31.451Z,52.90
2023-04-16T23:43:58.166Z,53.20
2023-04-16T23:46:24.901Z,53.40
2023-04-16T23:48:53.035Z,53.70
2023-04-16T23:51:20.058Z,53.70
2023-04-16T23:53:46.753Z,53.70
2023-04-16T23:56:13.428Z,53.40
2023-04-16T23:58:40.164Z,53.30
